createdAt,value
2019-02-04T00:01:22.625Z,93.24
2019-02-04T00:03:52.415Z,93.03
2019-02-04T00:06:21.651Z,93.26
2019-02-04T00:08:50.899Z,93.44
2019-02-04T00:11:20.181Z,92.97
2019-02-04T00:13:49.458Z,93.19
2019-02-04T00:16:18.998Z,93.40
2019-02-04T00:18:48.381Z,93.07
2019-02-04T00:21:17.628Z,93.06
2019-02-04T00:23:49.292Z,93.02
2019-02-04T00:26:18.527Z,92.56
2019-02-04T00:28:47.748Z,92.62
2019-02-04T00:31:17.000Z,92.74
2019-02-04T00:33:48.076Z,92.71
2019-02-04T00:36:17.320Z,92.10
2019-02-04T00:38:47.687Z,92.46
2019-02-04T00:41:16.926Z,92.05
2019-02-04T00:43:46.151Z,92.14
2019-02-04T00:46:16.072Z,92.30
2019-02-04T00:48:45.440Z,91.85
2019-02-04T00:51:14.680Z,92.18
2019-02-04T00:53:44.894Z,91.93
2019-02-04T00:56:15.445Z,91.95
2019-02-04T00:58:44.686Z,91.85
2019-02-04T01:01:13.926Z,91.81
2019-02-04T01:03:43.159Z,91.94
2019-02-04T01:06:12.419Z,91.59
2019-02-04T01:08:41.808Z,91.69
2019-02-04T01:11:11.159Z,91.97
2019-02-04T01:13:40.381Z,91.30
2019-02-04T01:16:10.024Z,91.35
2019-02-04T01:18:39.314Z,91.59
2019-02-04T01:21:08.388Z,91.63
2019-02-04T01:23:37.821Z,91.04
2019-02-04T01:26:07.107Z,91.40
2019-02-04T01:28:37.228Z,91.21
2019-02-04T01:31:06.287Z,90.82
2019-02-04T01:33:36.126Z,90.52
2019-02-04T01:36:05.489Z,90.29
2019-02-04T01:38:36.199Z,90.37
2019-02-04T01:41:05.410Z,90.49
2019-02-04T01:43:34.679Z,90.71
2019-02-04T01:46:03.925Z,90.76
2019-02-04T01:48:33.165Z,91.11
2019-02-04T01:51:04.221Z,91.13
2019-02-04T01:53:33.476Z,90.92
2019-02-04T01:56:03.075Z,90.98
2019-02-04T01:58:32.348Z,91.12
2019-02-04T02:01:01.938Z,90.14
2019-02-04T02:03:31.226Z,90.37
2019-02-04T02:06:00.796Z,90.61
2019-02-04T02:08:30.033Z,90.59
2019-02-04T02:11:02.415Z,90.82
2019-02-04T02:13:32.897Z,90.71
2019-02-04T02:16:02.116Z,90.72
2019-02-04T02:18:31.413Z,90.52
2019-02-04T02:21:00.658Z,90.00
2019-02-04T02:23:30.193Z,89.93
2019-02-04T02:25:59.410Z,90.03
2019-02-04T02:28:28.662Z,90.22
2019-02-04T02:30:57.920Z,90.14
2019-02-04T02:33:27.171Z,90.22
2019-02-04T02:35:56.751Z,90.54
2019-02-04T02:38:26.167Z,90.63
2019-02-04T02:40:55.402Z,90.72
2019-02-04T02:43:24.640Z,90.58
2019-02-04T02:45:55.062Z,90.61
2019-02-04T02:48:24.336Z,90.74
2019-02-04T02:50:53.562Z,90.96
2019-02-04T02:53:23.186Z,90.67
2019-02-04T02:55:52.421Z,90.85
2019-02-04T02:58:21.745Z,90.70
2019-02-04T03:00:50.934Z,91.02
2019-02-04T03:03:20.193Z,90.21
2019-02-04T03:05:50.006Z,90.01
2019-02-04T03:08:19.267Z,89.87
2019-02-04T03:10:48.511Z,90.31
2019-02-04T03:13:21.311Z,90.38
2019-02-04T03:15:50.563Z,90.44
2019-02-04T03:18:19.815Z,90.39
2019-02-04T03:20:49.313Z,90.39
2019-02-04T03:23:18.561Z,90.06
2019-02-04T03:25:47.803Z,89.79
2019-02-04T03:28:17.064Z,89.66
2019-02-04T03:30:46.282Z,89.46
2019-02-04T03:33:17.214Z,89.30
2019-02-04T03:35:46.455Z,89.00
2019-02-04T03:38:15.745Z,89.15
2019-02-04T03:40:44.982Z,88.74
2019-02-04T03:43:14.627Z,89.09
2019-02-04T03:45:43.883Z,88.55
2019-02-04T03:48:13.150Z,88.80
2019-02-04T03:50:42.398Z,88.91
2019-02-04T03:53:11.985Z,88.67
2019-02-04T03:55:41.243Z,88.92
2019-02-04T03:58:10.493Z,89.00
2019-02-04T04:00:39.748Z,88.74
2019-02-04T04:03:09.649Z,88.53
2019-02-04T04:05:38.911Z,88.69
2019-02-04T04:08:08.497Z,88.59
2019-02-04T04:10:37.742Z,88.99
2019-02-04T04:13:06.968Z,88.66
2019-02-04T04:15:36.240Z,88.44
2019-02-04T04:18:15.636Z,88.48
2019-02-04T04:20:36.411Z,88.17
2019-02-04T04:23:05.630Z,88.32
2019-02-04T04:25:35.143Z,88.70
2019-02-04T04:28:04.374Z,89.56
2019-02-04T04:30:34.621Z,89.92
2019-02-04T04:33:03.853Z,90.10
2019-02-04T04:35:33.099Z,89.93
2019-02-04T04:38:02.325Z,89.86
2019-02-04T04:40:31.581Z,89.65
2019-02-04T04:43:00.797Z,89.44
2019-02-04T04:45:31.684Z,89.27
2019-02-04T04:48:00.959Z,89.72
2019-02-04T04:50:30.201Z,89.76
2019-02-04T04:52:59.447Z,89.44
2019-02-04T04:55:28.686Z,89.46
2019-02-04T04:57:57.909Z,89.49
2019-02-04T05:00:29.713Z,89.41
2019-02-04T05:02:59.893Z,89.71
2019-02-04T05:05:29.147Z,89.98
2019-02-04T05:07:58.358Z,89.53
2019-02-04T05:10:27.716Z,89.85
2019-02-04T05:12:56.950Z,89.93
2019-02-04T05:15:28.158Z,90.14
2019-02-04T05:17:57.645Z,90.00
2019-02-04T05:20:27.015Z,89.62
2019-02-04T05:22:56.348Z,89.63
2019-02-04T05:25:25.577Z,90.27
2019-02-04T05:27:55.208Z,90.52
2019-02-04T05:30:25.429Z,90.83
2019-02-04T05:32:55.614Z,90.99
2019-02-04T05:35:25.428Z,91.12
2019-02-04T05:37:56.841Z,91.36
2019-02-04T05:40:26.059Z,91.43
2019-02-04T05:42:55.318Z,91.17
2019-02-04T05:45:24.542Z,91.41
2019-02-04T05:47:53.791Z,91.53
2019-02-04T05:50:23.047Z,91.46
2019-02-04T05:52:52.306Z,91.28
2019-02-04T05:55:23.067Z,91.16
2019-02-04T05:57:53.163Z,91.29
2019-02-04T06:00:40.300Z,91.77
2019-02-04T06:03:09.540Z,92.35
2019-02-04T06:05:38.757Z,93.05
2019-02-04T06:08:08.029Z,92.92
2019-02-04T06:10:37.427Z,92.66
2019-02-04T06:13:08.950Z,91.83
2019-02-04T06:15:38.180Z,91.76
2019-02-04T06:18:07.432Z,91.58
2019-02-04T06:20:39.363Z,91.62
2019-02-04T06:23:08.615Z,91.42
2019-02-04T06:25:37.832Z,91.19
2019-02-04T06:28:07.553Z,91.10
2019-02-04T06:30:36.763Z,90.97
2019-02-04T06:33:07.588Z,90.47
2019-02-04T06:35:38.050Z,90.26
2019-02-04T06:38:07.313Z,90.09
2019-02-04T06:40:36.853Z,90.13
2019-02-04T06:43:06.967Z,90.02
2019-02-04T06:45:36.185Z,89.94
2019-02-04T06:48:06.347Z,89.87
2019-02-04T06:50:35.564Z,89.92
2019-02-04T06:53:05.126Z,89.69
2019-02-04T06:55:34.793Z,89.69
2019-02-04T06:58:04.103Z,89.82
2019-02-04T07:00:34.906Z,89.58
2019-02-04T07:03:04.544Z,89.34
2019-02-04T07:05:43.489Z,89.48
2019-02-04T07:08:07.621Z,89.36
2019-02-04T07:10:36.844Z,89.20
2019-02-04T07:13:06.089Z,88.98
2019-02-04T07:15:35.405Z,88.67
2019-02-04T07:18:06.875Z,88.44
2019-02-04T07:20:36.109Z,88.29
2019-02-04T07:23:05.350Z,88.13
2019-02-04T07:25:34.553Z,87.95
2019-02-04T07:28:03.797Z,87.26
2019-02-04T07:30:33.415Z,86.87
2019-02-04T07:33:02.661Z,86.34
2019-02-04T07:35:32.193Z,84.99
2019-02-04T07:38:01.454Z,84.56
2019-02-04T07:40:32.193Z,84.42
2019-02-04T07:43:01.485Z,84.31
2019-02-04T07:45:32.092Z,83.14
2019-02-04T07:48:01.309Z,81.73
2019-02-04T07:50:30.544Z,81.75
2019-02-04T07:52:59.767Z,81.17
2019-02-04T07:55:29.010Z,79.83
2019-02-04T07:57:58.520Z,78.16
2019-02-04T08:00:30.232Z,78.89
2019-02-04T08:02:59.793Z,77.92
2019-02-04T08:05:29.566Z,77.64
2019-02-04T08:07:58.686Z,76.78
2019-02-04T08:10:27.941Z,77.43
2019-02-04T08:13:01.470Z,76.26
2019-02-04T08:15:30.502Z,75.71
2019-02-04T08:17:59.750Z,76.93
2019-02-04T08:20:29.012Z,75.11
2019-02-04T08:22:58.252Z,74.90
2019-02-04T08:25:27.706Z,76.23
2019-02-04T08:27:57.686Z,77.86
2019-02-04T08:30:29.637Z,78.60
2019-02-04T08:32:58.950Z,76.89
2019-02-04T08:35:30.351Z,77.72
2019-02-04T08:37:59.578Z,76.55
2019-02-04T08:40:28.841Z,76.07
2019-02-04T08:42:58.426Z,74.45
2019-02-04T08:45:27.670Z,73.51
2019-02-04T08:47:56.885Z,73.94
2019-02-04T08:50:26.533Z,73.78
2019-02-04T08:52:55.757Z,73.46
2019-02-04T08:55:25.503Z,72.46
2019-02-04T08:57:55.042Z,71.92
2019-02-04T09:00:24.594Z,70.75
2019-02-04T09:02:54.379Z,71.93
2019-02-04T09:05:24.783Z,71.15
2019-02-04T09:07:54.014Z,70.92
2019-02-04T09:10:31.545Z,70.06
2019-02-04T09:13:01.557Z,68.94
2019-02-04T09:15:30.796Z,70.14
2019-02-04T09:18:03.557Z,70.77
2019-02-04T09:20:32.828Z,70.49
2019-02-04T09:23:02.059Z,70.49
2019-02-04T09:25:31.755Z,69.29
2019-02-04T09:28:02.309Z,70.77
2019-02-04T09:30:31.549Z,69.73
2019-02-04T09:33:01.182Z,69.82
2019-02-04T09:35:30.445Z,70.03
2019-02-04T09:37:59.849Z,67.67
2019-02-04T09:40:35.323Z,64.95
2019-02-04T09:43:05.733Z,66.61
2019-02-04T09:45:34.993Z,67.22
2019-02-04T09:48:04.768Z,66.82
2019-02-04T09:50:36.662Z,68.96
2019-02-04T09:53:06.464Z,69.56
2019-02-04T09:55:37.114Z,71.78
2019-02-04T09:58:06.533Z,73.91
2019-02-04T10:00:36.611Z,74.72
2019-02-04T10:03:07.101Z,77.08
2019-02-04T10:05:36.424Z,75.94
2019-02-04T10:08:06.409Z,76.11
2019-02-04T10:10:35.739Z,75.41
2019-02-04T10:13:05.875Z,73.83
2019-02-04T10:15:39.384Z,74.59
2019-02-04T10:18:09.989Z,75.60
2019-02-04T10:20:39.717Z,77.42
2019-02-04T10:23:09.224Z,76.28
2019-02-04T10:25:40.236Z,75.30
2019-02-04T10:28:10.380Z,74.05
2019-02-04T10:30:39.574Z,73.83
2019-02-04T10:33:09.191Z,73.76
2019-02-04T10:35:38.532Z,72.78
2019-02-04T10:38:08.073Z,73.33
2019-02-04T10:40:37.286Z,72.12
2019-02-04T10:43:13.744Z,70.20
2019-02-04T10:45:43.348Z,68.85
2019-02-04T10:48:12.652Z,70.05
2019-02-04T10:50:46.700Z,70.79
2019-02-04T10:53:15.253Z,72.06
2019-02-04T10:55:44.739Z,72.74
2019-02-04T10:58:14.509Z,75.14
2019-02-04T11:00:44.187Z,76.49
2019-02-04T11:03:14.501Z,72.68
2019-02-04T11:05:44.388Z,73.82
2019-02-04T11:08:14.128Z,72.18
2019-02-04T11:10:44.142Z,71.61
2019-02-04T11:13:15.475Z,71.36
2019-02-04T11:15:45.725Z,72.43
2019-02-04T11:18:15.787Z,72.93
2019-02-04T11:20:57.199Z,71.47
2019-02-04T11:23:16.512Z,69.84
2019-02-04T11:25:45.763Z,69.94
2019-02-04T11:28:15.420Z,73.81
2019-02-04T11:30:47.361Z,74.09
2019-02-04T11:33:16.597Z,74.38
2019-02-04T11:35:45.941Z,74.75
2019-02-04T11:38:22.632Z,73.60
2019-02-04T11:40:52.252Z,73.27
2019-02-04T11:43:21.503Z,72.13
2019-02-04T11:45:50.707Z,72.28
2019-02-04T11:48:20.071Z,72.28
2019-02-04T11:50:49.613Z,71.22
2019-02-04T11:53:18.855Z,70.84
2019-02-04T11:55:48.467Z,73.58
2019-02-04T11:58:17.722Z,74.29
2019-02-04T12:00:47.397Z,74.13
2019-02-04T12:03:16.974Z,72.85
2019-02-04T12:05:46.212Z,74.59
2019-02-04T12:08:17.703Z,75.42
2019-02-04T12:10:56.700Z,76.70
2019-02-04T12:13:27.888Z,75.31
2019-02-04T12:15:59.311Z,74.36
2019-02-04T12:18:28.668Z,74.74
2019-02-04T12:20:57.897Z,74.74
2019-02-04T12:23:27.145Z,75.71
2019-02-04T12:25:56.373Z,76.66
2019-02-04T12:28:25.668Z,77.31
2019-02-04T12:30:54.892Z,79.23
2019-02-04T12:33:26.889Z,79.65
2019-02-04T12:35:56.570Z,78.52
2019-02-04T12:38:25.838Z,78.10
2019-02-04T12:40:55.927Z,77.08
2019-02-04T12:43:25.207Z,76.43
2019-02-04T12:45:55.341Z,76.88
2019-02-04T12:48:24.692Z,77.42
2019-02-04T12:50:55.276Z,78.16
2019-02-04T12:53:24.532Z,78.06
2019-02-04T12:55:53.843Z,78.09
2019-02-04T12:58:23.100Z,79.06
2019-02-04T13:00:52.375Z,78.39
2019-02-04T13:03:21.641Z,78.18
2019-02-04T13:05:53.424Z,76.25
2019-02-04T13:08:22.656Z,77.24
2019-02-04T13:10:51.897Z,77.16
2019-02-04T13:13:22.615Z,76.16
2019-02-04T13:15:51.960Z,78.00
2019-02-04T13:18:21.519Z,75.47
2019-02-04T13:20:50.963Z,75.47
2019-02-04T13:23:20.202Z,78.93
2019-02-04T13:25:49.847Z,81.64
2019-02-04T13:28:23.027Z,81.99
2019-02-04T13:30:52.302Z,82.32
2019-02-04T13:33:22.227Z,83.61
2019-02-04T13:35:51.305Z,84.40
2019-02-04T13:38:20.543Z,84.09
2019-02-04T13:40:49.836Z,82.72
2019-02-04T13:43:19.202Z,83.34
2019-02-04T13:45:48.543Z,84.38
2019-02-04T13:48:17.902Z,85.83
2019-02-04T13:50:47.159Z,87.01
2019-02-04T13:53:16.378Z,87.59
2019-02-04T13:55:51.737Z,87.61
2019-02-04T13:58:22.261Z,87.49
2019-02-04T14:00:51.823Z,87.22
2019-02-04T14:03:21.047Z,87.14
2019-02-04T14:05:50.443Z,87.63
2019-02-04T14:08:19.676Z,87.93
2019-02-04T14:10:49.402Z,88.16
2019-02-04T14:13:19.956Z,88.56
2019-02-04T14:15:49.356Z,87.51
2019-02-04T14:18:18.687Z,87.17
2019-02-04T14:20:47.944Z,86.95
2019-02-04T14:23:17.362Z,87.02
2019-02-04T14:25:46.618Z,85.90
2019-02-04T14:28:16.145Z,85.49
2019-02-04T14:30:46.962Z,85.79
2019-02-04T14:33:16.199Z,85.74
2019-02-04T14:35:45.443Z,85.97
2019-02-04T14:38:14.664Z,85.87
2019-02-04T14:40:44.214Z,85.40
2019-02-04T14:43:59.117Z,85.61
2019-02-04T14:47:10.778Z,85.78
2019-02-04T14:50:08.924Z,85.69
2019-02-04T14:52:53.879Z,86.12
2019-02-04T14:56:07.876Z,85.32
2019-02-04T14:59:04.381Z,84.60
2019-02-04T15:02:10.080Z,83.53
2019-02-04T15:04:54.266Z,82.72
2019-02-04T15:08:06.066Z,82.43
2019-02-04T15:10:50.438Z,82.17
2019-02-04T15:13:34.884Z,82.57
2019-02-04T15:16:48.052Z,84.08
2019-02-04T15:19:53.798Z,84.88
2019-02-04T15:22:47.250Z,84.83
2019-02-04T15:25:48.368Z,85.15
2019-02-04T15:28:29.604Z,84.88
2019-02-04T15:31:14.929Z,84.61
2019-02-04T15:34:15.282Z,84.91
2019-02-04T15:37:28.809Z,85.63
2019-02-04T15:40:32.498Z,86.23
2019-02-04T15:43:48.926Z,86.89
2019-02-04T15:46:31.586Z,87.29
2019-02-04T15:49:50.852Z,86.80
2019-02-04T15:52:18.141Z,86.99
2019-02-04T15:54:49.424Z,87.24
2019-02-04T15:57:19.297Z,87.53
2019-02-04T15:59:48.709Z,87.91
2019-02-04T16:02:17.947Z,87.50
2019-02-04T16:04:47.237Z,87.25
2019-02-04T16:07:16.724Z,87.01
2019-02-04T16:09:45.969Z,86.74
2019-02-04T16:12:15.629Z,86.83
2019-02-04T16:14:44.876Z,86.56
2019-02-04T16:17:14.326Z,86.39
2019-02-04T16:19:43.583Z,86.05
2019-02-04T16:22:12.807Z,85.99
2019-02-04T16:24:42.334Z,85.83
2019-02-04T16:27:12.041Z,85.75
2019-02-04T16:29:41.288Z,85.57
2019-02-04T16:32:11.331Z,85.93
2019-02-04T16:34:40.583Z,86.11
2019-02-04T16:37:09.807Z,86.09
2019-02-04T16:39:39.055Z,86.07
2019-02-04T16:42:08.561Z,86.12
2019-02-04T16:44:37.820Z,86.24
2019-02-04T16:47:07.048Z,86.27
2019-02-04T16:49:37.601Z,86.01
2019-02-04T16:52:06.835Z,86.03
2019-02-04T16:54:38.351Z,86.08
2019-02-04T16:57:07.599Z,85.98
2019-02-04T16:59:36.877Z,86.00
2019-02-04T17:02:06.192Z,85.79
2019-02-04T17:04:35.440Z,85.65
2019-02-04T17:07:05.240Z,85.67
2019-02-04T17:09:34.506Z,85.58
2019-02-04T17:12:04.720Z,85.57
2019-02-04T17:14:33.959Z,85.46
2019-02-04T17:17:03.214Z,85.62
2019-02-04T17:19:32.436Z,85.84
2019-02-04T17:22:01.881Z,86.10
2019-02-04T17:24:31.098Z,86.28
2019-02-04T17:27:00.363Z,86.50
2019-02-04T17:29:29.594Z,86.55
2019-02-04T17:32:00.527Z,86.50
2019-02-04T17:34:29.873Z,86.44
2019-02-04T17:36:59.138Z,86.42
2019-02-04T17:39:28.371Z,86.46
2019-02-04T17:41:57.613Z,86.67
2019-02-04T17:44:26.850Z,86.59
2019-02-04T17:46:56.102Z,86.99
2019-02-04T17:49:25.418Z,87.24
2019-02-04T17:51:55.063Z,87.89
2019-02-04T17:54:24.546Z,87.98
2019-02-04T17:56:53.791Z,88.36
2019-02-04T17:59:23.360Z,88.68
2019-02-04T18:01:52.708Z,88.76
2019-02-04T18:04:22.703Z,89.03
2019-02-04T18:06:52.076Z,89.02
2019-02-04T18:09:21.682Z,88.85
2019-02-04T18:11:50.922Z,88.66
2019-02-04T18:14:20.143Z,88.53
2019-02-04T18:16:49.404Z,88.23
2019-02-04T18:19:18.614Z,88.07
2019-02-04T18:21:47.874Z,87.72
2019-02-04T18:24:17.377Z,87.47
2019-02-04T18:26:46.623Z,87.51
2019-02-04T18:29:15.875Z,87.16
2019-02-04T18:31:45.166Z,86.88
2019-02-04T18:34:14.382Z,86.57
2019-02-04T18:36:43.647Z,86.82
2019-02-04T18:39:14.592Z,86.60
2019-02-04T18:41:51.485Z,86.97
2019-02-04T18:44:21.964Z,86.75
2019-02-04T18:46:51.715Z,86.79
2019-02-04T18:49:20.953Z,86.56
2019-02-04T18:51:50.214Z,86.61
2019-02-04T18:54:19.798Z,86.67
2019-02-04T18:56:49.068Z,86.92
2019-02-04T18:59:18.347Z,87.10
2019-02-04T19:01:50.083Z,87.28
2019-02-04T19:04:19.320Z,87.33
2019-02-04T19:06:48.569Z,86.89
2019-02-04T19:09:17.789Z,87.19
2019-02-04T19:11:47.413Z,87.12
2019-02-04T19:14:16.690Z,87.07
2019-02-04T19:16:45.933Z,87.26
2019-02-04T19:19:15.200Z,87.43
2019-02-04T19:21:44.438Z,87.10
2019-02-04T19:24:13.698Z,86.55
2019-02-04T19:26:44.251Z,86.10
2019-02-04T19:29:13.539Z,85.92
2019-02-04T19:31:42.773Z,86.35
2019-02-04T19:34:12.338Z,86.55
2019-02-04T19:36:45.865Z,87.11
2019-02-04T19:39:15.288Z,86.46
2019-02-04T19:41:44.523Z,87.32
2019-02-04T19:44:13.758Z,87.98
2019-02-04T19:46:43.466Z,87.99
2019-02-04T19:49:12.713Z,87.73
2019-02-04T19:51:43.054Z,87.41
2019-02-04T19:54:21.319Z,86.60
2019-02-04T19:56:43.908Z,86.81
2019-02-04T19:59:14.482Z,86.18
2019-02-04T20:01:43.712Z,86.53
2019-02-04T20:04:14.176Z,86.96
2019-02-04T20:06:43.411Z,87.19
2019-02-04T20:09:13.089Z,87.76
2019-02-04T20:11:42.300Z,87.41
2019-02-04T20:14:11.551Z,87.24
2019-02-04T20:16:40.799Z,88.48
2019-02-04T20:19:10.054Z,89.00
2019-02-04T20:21:39.293Z,89.09
2019-02-04T20:24:08.733Z,88.57
2019-02-04T20:26:37.969Z,88.80
2019-02-04T20:29:07.718Z,88.83
2019-02-04T20:31:36.939Z,88.37
2019-02-04T20:34:06.453Z,88.43
2019-02-04T20:36:35.993Z,88.59
2019-02-04T20:39:11.322Z,88.50
2019-02-04T20:41:42.851Z,88.09
2019-02-04T20:44:12.485Z,88.38
2019-02-04T20:46:41.740Z,88.25
2019-02-04T20:49:10.975Z,86.73
2019-02-04T20:51:40.026Z,86.98
2019-02-04T20:54:19.477Z,87.11
2019-02-04T20:56:40.264Z,86.20
2019-02-04T20:59:09.828Z,87.90
2019-02-04T21:01:39.394Z,87.88
2019-02-04T21:04:08.659Z,88.38
2019-02-04T21:06:37.902Z,88.53
2019-02-04T21:09:09.607Z,88.38
2019-02-04T21:11:39.695Z,88.29
2019-02-04T21:14:08.998Z,87.74
2019-02-04T21:16:38.220Z,88.38
2019-02-04T21:19:07.476Z,87.26
2019-02-04T21:21:36.780Z,88.45
2019-02-04T21:24:06.382Z,89.35
2019-02-04T21:26:35.611Z,87.65
2019-02-04T21:29:05.494Z,87.94
2019-02-04T21:31:35.745Z,87.92
2019-02-04T21:34:05.409Z,88.90
2019-02-04T21:36:34.659Z,89.22
2019-02-04T21:39:05.813Z,89.58
2019-02-04T21:41:35.426Z,89.59
2019-02-04T21:44:06.109Z,89.69
2019-02-04T21:46:35.333Z,89.67
2019-02-04T21:49:04.778Z,89.29
2019-02-04T21:51:35.064Z,89.23
2019-02-04T21:54:05.799Z,89.19
2019-02-04T21:56:35.352Z,89.18
2019-02-04T21:59:05.053Z,89.52
2019-02-04T22:01:34.317Z,89.52
2019-02-04T22:04:03.543Z,89.65
2019-02-04T22:06:32.794Z,89.53
2019-02-04T22:09:02.025Z,89.20
2019-02-04T22:11:31.272Z,89.11
2019-02-04T22:14:01.030Z,88.70
2019-02-04T22:16:30.293Z,88.62
2019-02-04T22:18:59.909Z,88.43
2019-02-04T22:21:29.178Z,88.39
2019-02-04T22:23:59.680Z,88.54
2019-02-04T22:26:30.409Z,88.43
2019-02-04T22:28:59.950Z,88.45
2019-02-04T22:31:29.225Z,88.46
2019-02-04T22:33:58.821Z,88.08
2019-02-04T22:36:28.354Z,88.02
2019-02-04T22:38:57.589Z,88.12
2019-02-04T22:41:26.855Z,88.22
2019-02-04T22:43:56.095Z,88.56
2019-02-04T22:46:25.638Z,88.46
2019-02-04T22:48:57.706Z,87.38
2019-02-04T22:51:27.017Z,88.11
2019-02-04T22:53:56.248Z,87.36
2019-02-04T22:56:25.874Z,87.46
2019-02-04T22:58:55.128Z,88.37
2019-02-04T23:01:49.792Z,87.75
2019-02-04T23:04:19.342Z,87.92
2019-02-04T23:06:48.586Z,87.48
2019-02-04T23:09:17.891Z,87.05
2019-02-04T23:11:47.276Z,87.66
2019-02-04T23:14:16.938Z,88.03
2019-02-04T23:16:46.189Z,88.10
2019-02-04T23:19:15.412Z,87.56
2019-02-04T23:21:46.334Z,87.47
2019-02-04T23:24:18.117Z,87.64
2019-02-04T23:26:47.401Z,87.26
2019-02-04T23:29:16.630Z,86.70
2019-02-04T23:31:45.898Z,86.53
2019-02-04T23:34:15.416Z,86.71
2019-02-04T23:36:45.598Z,87.23
2019-02-04T23:39:14.837Z,87.44
2019-02-04T23:41:44.057Z,87.41
2019-02-04T23:44:13.313Z,87.48
2019-02-04T23:46:49.719Z,87.28
2019-02-04T23:49:19.000Z,87.19
2019-02-04T23:51:48.274Z,86.90
2019-02-04T23:54:17.525Z,86.30
2019-02-04T23:56:46.985Z,85.67
2019-02-04T23:59:16.293Z,85.79
